Time;durP1;ratioP1;P1;durP2;ratioP2;P2;SDS_P1;SDS_P2;PMS_P1;PMS_P2;Temp;Humidity;BMP_temperature;BMP_pressure;BME280_temperature;BME280_humidity;BME280_pressure;Samples;Min_cycle;Max_cycle;Signal;HPM_P1;HPM_P2
2023/06/06 00:00:19;;;;;;;0.90;0.30;;;;;;;10.93;100.00;100296.41;105464;1257;61133;-46
2023/06/06 00:02:46;;;;;;;0.60;0.30;;;;;;;10.89;100.00;100291.91;105411;1254;74591;-45
2023/06/06 00:05:14;;;;;;;0.60;0.40;;;;;;;10.86;100.00;100295.98;105433;1253;70050;-45
2023/06/06 00:07:43;;;;;;;0.80;0.40;;;;;;;10.83;100.00;100296.80;105367;1254;74665;-46
2023/06/06 00:10:12;;;;;;;2.30;0.30;;;;;;;10.82;100.00;100299.91;105441;1257;63744;-49
2023/06/06 00:12:41;;;;;;;0.50;0.30;;;;;;;10.83;100.00;100299.13;105392;1253;62351;-45
2023/06/06 00:15:10;;;;;;;1.10;0.30;;;;;;;10.86;100.00;100295.96;109118;1253;75502;-48
2023/06/06 00:17:38;;;;;;;1.80;0.50;;;;;;;10.86;100.00;100296.35;109131;1254;70633;-49
2023/06/06 00:20:08;;;;;;;0.60;0.40;;;;;;;10.85;100.00;100296.36;109013;1254;74990;-48
2023/06/06 00:22:36;;;;;;;3.60;0.30;;;;;;;10.85;100.00;100299.96;109041;1254;61302;-49
2023/06/06 00:25:04;;;;;;;0.90;0.30;;;;;;;10.84;100.00;100301.23;109065;1257;62118;-48
2023/06/06 00:27:35;;;;;;;1.60;0.40;;;;;;;10.85;100.00;100299.80;109029;1253;76746;-49
2023/06/06 00:30:04;;;;;;;0.70;0.40;;;;;;;10.83;100.00;100297.37;108985;1252;69416;-48
2023/06/06 00:32:31;;;;;;;1.10;0.40;;;;;;;10.78;100.00;100298.62;108962;1253;73845;-48
2023/06/06 00:34:59;;;;;;;0.40;0.30;;;;;;;10.75;100.00;100301.08;109006;1253;63058;-48
2023/06/06 00:37:26;;;;;;;0.80;0.30;;;;;;;10.75;100.00;100298.94;107669;1254;62074;-47
2023/06/06 00:39:54;;;;;;;1.80;0.30;;;;;;;10.76;100.00;100301.56;105475;1254;74262;-46
2023/06/06 00:42:21;;;;;;;2.00;0.30;;;;;;;10.78;100.00;100296.15;105362;1253;69605;-47
2023/06/06 00:44:48;;;;;;;0.70;0.30;;;;;;;10.80;100.00;100298.20;105463;1256;73708;-48
2023/06/06 00:47:16;;;;;;;0.50;0.40;;;;;;;10.80;100.00;100300.73;105369;1254;62004;-49
2023/06/06 00:49:44;;;;;;;0.70;0.40;;;;;;;10.78;100.00;100302.03;105290;1253;61658;-45
2023/06/06 00:52:12;;;;;;;1.10;0.30;;;;;;;10.77;100.00;100303.16;109101;1252;76009;-48
2023/06/06 00:54:40;;;;;;;2.20;0.40;;;;;;;10.75;100.00;100301.63;108889;1253;68941;-48
2023/06/06 00:57:08;;;;;;;1.30;0.40;;;;;;;10.71;100.00;100301.81;107932;1256;74765;-47
2023/06/06 00:59:36;;;;;;;2.60;0.40;;;;;;;10.67;100.00;100300.71;106221;1254;61107;-47
2023/06/06 01:02:04;;;;;;;0.80;0.40;;;;;;;10.61;100.00;100298.23;104941;1254;62793;-46
2023/06/06 01:04:32;;;;;;;0.50;0.30;;;;;;;10.54;100.00;100295.48;105233;1256;75800;-46
2023/06/06 01:06:59;;;;;;;1.80;0.40;;;;;;;10.46;100.00;100297.25;105325;1254;70736;-45
2023/06/06 01:09:26;;;;;;;0.50;0.40;;;;;;;10.39;100.00;100300.17;105404;1259;75034;-49
2023/06/06 01:12:11;;;;;;;1.50;0.40;;;;;;;10.36;100.00;100300.33;106181;1254;63789;-48
2023/06/06 01:15:32;;;;;;;0.50;0.30;;;;;;;10.33;100.00;100303.13;105344;1254;60781;-48
2023/06/06 01:18:01;;;;;;;0.60;0.40;;;;;;;10.30;100.00;100304.46;107185;1257;76186;-48
2023/06/06 01:20:30;;;;;;;2.70;0.40;;;;;;;10.31;100.00;100306.41;105840;1257;70114;-48
2023/06/06 01:22:58;;;;;;;4.30;0.60;;;;;;;10.31;100.00;100307.48;106216;1256;74934;-48
2023/06/06 01:25:25;;;;;;;1.70;0.30;;;;;;;10.29;100.00;100308.86;105299;1254;61180;-48
2023/06/06 01:27:55;;;;;;;0.50;0.40;;;;;;;10.25;100.00;100308.63;105397;1253;62387;-50
2023/06/06 01:30:25;;;;;;;0.90;0.40;;;;;;;10.20;100.00;100312.03;105445;1259;76192;-47
2023/06/06 01:33:10;;;;;;;2.70;0.60;;;;;;;10.15;100.00;100309.70;106815;1256;67978;-48
2023/06/06 01:36:08;;;;;;;0.40;0.40;;;;;;;10.10;100.00;100317.96;105470;1257;75001;-49
2023/06/06 01:38:47;;;;;;;2.10;0.30;;;;;;;10.02;100.00;100315.21;105352;1257;64488;-48
2023/06/06 01:41:16;;;;;;;0.50;0.40;;;;;;;9.95;100.00;100316.17;105466;1254;61360;-47
2023/06/06 01:43:45;;;;;;;1.30;0.40;;;;;;;9.89;100.00;100316.58;105772;1253;75017;-47
2023/06/06 01:46:12;;;;;;;0.50;0.30;;;;;;;9.86;100.00;100318.64;105457;1253;70324;-46
2023/06/06 01:48:40;;;;;;;4.30;0.30;;;;;;;9.87;100.00;100318.96;105425;1258;74931;-47
2023/06/06 01:51:09;;;;;;;0.50;0.30;;;;;;;9.90;100.00;100321.03;105443;1257;63282;-47
2023/06/06 01:53:38;;;;;;;0.90;0.40;;;;;;;9.92;100.00;100317.02;105820;1258;61114;-47
2023/06/06 01:56:12;;;;;;;0.60;0.40;;;;;;;9.94;100.00;100319.29;105466;1258;75892;-46
2023/06/06 01:58:43;;;;;;;;;;;;;;;9.95;100.00;100316.90;107145;1257;67781;-48
2023/06/06 02:01:10;;;;;;;0.80;0.50;;;;;;;9.96;100.00;100318.29;105398;1259;73759;-47
2023/06/06 02:03:38;;;;;;;1.80;0.30;;;;;;;9.96;100.00;100317.21;105463;1254;62245;-47
2023/06/06 02:06:06;;;;;;;2.00;0.50;;;;;;;9.94;100.00;100319.45;105527;1259;61486;-47
2023/06/06 02:08:34;;;;;;;0.70;0.50;;;;;;;9.93;100.00;100319.33;105583;1259;75251;-47
2023/06/06 02:11:01;;;;;;;1.30;0.30;;;;;;;9.90;100.00;100319.40;105445;1259;69826;-45
2023/06/06 02:13:30;;;;;;;0.60;0.40;;;;;;;9.88;100.00;100323.05;105888;1257;73799;-49
2023/06/06 02:15:57;;;;;;;1.00;0.40;;;;;;;9.90;100.00;100324.27;105415;1253;63916;-46
2023/06/06 02:18:25;;;;;;;0.40;0.30;;;;;;;9.92;100.00;100327.61;105412;1256;62580;-49
2023/06/06 02:20:53;;;;;;;0.70;0.40;;;;;;;9.95;100.00;100325.69;105478;1256;76501;-46
2023/06/06 02:23:22;;;;;;;1.00;0.40;;;;;;;9.97;100.00;100327.94;105491;1254;70294;-46
2023/06/06 02:25:50;;;;;;;0.60;0.40;;;;;;;9.98;100.00;100327.38;105667;1254;73600;-45
2023/06/06 02:28:18;;;;;;;1.60;0.40;;;;;;;9.99;100.00;100330.36;106326;1257;62325;-46
2023/06/06 02:30:45;;;;;;;2.50;0.50;;;;;;;10.02;100.00;100329.20;105490;1253;62385;-47
2023/06/06 02:33:13;;;;;;;3.00;0.40;;;;;;;10.05;100.00;100333.73;105438;1254;76248;-46
2023/06/06 02:35:41;;;;;;;1.40;0.50;;;;;;;10.07;100.00;100327.91;105796;1253;70405;-46
2023/06/06 02:38:08;;;;;;;1.50;0.40;;;;;;;10.09;100.00;100330.89;105402;1254;74956;-46
2023/06/06 02:40:36;;;;;;;0.90;0.40;;;;;;;10.10;100.00;100328.55;105862;1254;63421;-46
2023/06/06 02:43:03;;;;;;;0.50;0.40;;;;;;;10.09;100.00;100329.64;105476;1254;60736;-47
2023/06/06 02:45:31;;;;;;;1.30;0.50;;;;;;;10.09;100.00;100330.00;105410;1254;74939;-47
2023/06/06 02:47:58;;;;;;;0.70;0.40;;;;;;;10.10;100.00;100328.88;105475;1253;68902;-46
2023/06/06 02:50:28;;;;;;;4.20;0.40;;;;;;;10.15;100.00;100330.85;105397;1259;74234;-46
2023/06/06 02:52:55;;;;;;;0.50;0.30;;;;;;;10.22;100.00;100330.98;106006;1259;63751;-46
2023/06/06 02:55:23;;;;;;;1.20;0.40;;;;;;;10.31;100.00;100333.34;105283;1254;61934;-45
2023/06/06 02:57:51;;;;;;;0.80;0.30;;;;;;;10.40;100.00;100337.29;105381;1261;74938;-47
2023/06/06 03:00:18;;;;;;;0.60;0.30;;;;;;;10.47;100.00;100334.31;109015;1254;70241;-47
2023/06/06 03:02:46;;;;;;;0.50;0.30;;;;;;;10.54;100.00;100328.48;108936;1257;73757;-46
2023/06/06 03:05:13;;;;;;;1.40;0.40;;;;;;;10.61;100.00;100332.88;109036;1253;64042;-46
2023/06/06 03:07:41;;;;;;;0.50;0.30;;;;;;;10.68;100.00;100335.11;108991;1254;61767;-46
2023/06/06 03:10:09;;;;;;;0.60;0.30;;;;;;;10.77;100.00;100336.04;108966;1252;76272;-46
2023/06/06 03:12:41;;;;;;;2.30;0.30;;;;;;;10.87;100.00;100339.38;109066;1253;71332;-47
2023/06/06 03:15:09;;;;;;;1.70;0.40;;;;;;;10.96;100.00;100341.16;108766;1260;74203;-47
2023/06/06 03:17:40;;;;;;;1.20;0.30;;;;;;;11.02;100.00;100343.78;108902;1259;63436;-48
2023/06/06 03:20:09;;;;;;;0.50;0.30;;;;;;;11.06;100.00;100341.47;106045;1254;62390;-47
2023/06/06 03:22:37;;;;;;;1.10;0.40;;;;;;;11.08;100.00;100342.64;108960;1253;76197;-48
2023/06/06 03:25:05;;;;;;;0.60;0.30;;;;;;;11.11;100.00;100341.47;109188;1254;68476;-47
2023/06/06 03:27:32;;;;;;;0.50;0.30;;;;;;;11.14;100.00;100342.04;109015;1253;72909;-47
2023/06/06 03:30:02;;;;;;;0.40;0.30;;;;;;;11.18;100.00;100344.94;108986;1253;60377;-47
2023/06/06 03:32:30;;;;;;;0.60;0.40;;;;;;;11.20;100.00;100345.02;107044;1260;61111;-47
2023/06/06 03:34:58;;;;;;;0.60;0.40;;;;;;;11.20;100.00;100343.41;109067;1254;75307;-48
2023/06/06 03:37:25;;;;;;;0.40;0.30;;;;;;;11.23;100.00;100344.20;108936;1253;69105;-47
2023/06/06 03:39:52;;;;;;;1.00;0.40;;;;;;;11.26;100.00;100347.84;109093;1254;73769;-47
2023/06/06 03:42:20;;;;;;;0.60;0.30;;;;;;;11.31;100.00;100349.25;109015;1253;62977;-49
2023/06/06 03:44:47;;;;;;;0.50;0.30;;;;;;;11.37;100.00;100348.27;109016;1253;60595;-48
2023/06/06 03:47:15;;;;;;;1.10;0.40;;;;;;;11.41;100.00;100350.64;109087;1254;75422;-47
2023/06/06 03:49:43;;;;;;;0.60;0.40;;;;;;;11.45;100.00;100347.77;109100;1253;69951;-48
2023/06/06 03:52:10;;;;;;;1.10;0.30;;;;;;;11.49;100.00;100353.85;107970;1255;76000;-45
2023/06/06 03:54:38;;;;;;;0.40;0.30;;;;;;;11.54;100.00;100350.98;105473;1260;63145;-43
2023/06/06 03:57:08;;;;;;;2.80;0.50;;;;;;;11.58;100.00;100351.67;105358;1254;60548;-45
2023/06/06 03:59:36;;;;;;;1.90;0.50;;;;;;;11.61;100.00;100352.97;105364;1260;76205;-46
2023/06/06 04:02:05;;;;;;;1.20;0.60;;;;;;;11.68;100.00;100353.20;105415;1257;68948;-45
2023/06/06 04:04:32;;;;;;;0.70;0.30;;;;;;;11.78;100.00;100353.02;105548;1254;73894;-46
2023/06/06 04:07:00;;;;;;;0.70;0.40;;;;;;;11.88;100.00;100350.39;105421;1254;64000;-49
2023/06/06 04:09:28;;;;;;;2.30;0.30;;;;;;;12.00;100.00;100351.66;105719;1259;62325;-48
2023/06/06 04:11:55;;;;;;;0.50;0.40;;;;;;;12.14;100.00;100346.73;105480;1254;74964;-46
2023/06/06 04:14:23;;;;;;;2.90;0.50;;;;;;;12.28;100.00;100349.48;105459;1257;69316;-48
2023/06/06 04:16:51;;;;;;;1.00;0.50;;;;;;;12.43;100.00;100348.60;105470;1254;73776;-48
2023/06/06 04:19:19;;;;;;;1.20;0.50;;;;;;;12.59;100.00;100351.81;105404;1260;62359;-49
2023/06/06 04:21:47;;;;;;;2.50;0.50;;;;;;;12.73;100.00;100352.23;105609;1254;62346;-48
2023/06/06 04:24:14;;;;;;;0.90;0.40;;;;;;;12.87;100.00;100348.28;105450;1254;75078;-46
2023/06/06 04:26:43;;;;;;;0.60;0.40;;;;;;;13.03;100.00;100350.27;105422;1254;69663;-48
2023/06/06 04:29:13;;;;;;;5.40;0.70;;;;;;;13.17;100.00;100349.38;105450;1254;74509;-45
2023/06/06 04:31:41;;;;;;;1.10;0.40;;;;;;;13.32;100.00;100350.64;105952;1254;63882;-45
2023/06/06 04:34:12;;;;;;;0.70;0.50;;;;;;;13.49;100.00;100351.39;105526;1259;61920;-48
2023/06/06 04:36:40;;;;;;;1.60;0.50;;;;;;;13.63;100.00;100354.27;105775;1257;76102;-46
2023/06/06 04:39:09;;;;;;;1.20;0.50;;;;;;;13.79;100.00;100352.19;106030;1255;70333;-46
2023/06/06 04:41:36;;;;;;;0.80;0.50;;;;;;;13.95;100.00;100356.22;105388;1259;75482;-46
2023/06/06 04:44:08;;;;;;;2.00;0.40;;;;;;;14.12;100.00;100356.02;105600;1258;62475;-47
2023/06/06 04:46:36;;;;;;;1.10;0.60;;;;;;;14.28;100.00;100357.86;105499;1254;62255;-47
2023/06/06 04:49:03;;;;;;;1.60;0.50;;;;;;;14.44;100.00;100361.55;105596;1254;76719;-45
2023/06/06 04:51:32;;;;;;;1.30;0.40;;;;;;;14.60;100.00;100362.48;105599;1258;69701;-47
2023/06/06 04:54:01;;;;;;;4.70;0.50;;;;;;;14.76;100.00;100366.61;105684;1254;74953;-48
2023/06/06 04:56:29;;;;;;;0.60;0.50;;;;;;;14.93;100.00;100369.48;106000;1259;62372;-47
2023/06/06 04:58:57;;;;;;;3.20;0.40;;;;;;;15.09;100.00;100373.80;105624;1260;60490;-48
2023/06/06 05:01:24;;;;;;;4.30;0.30;;;;;;;15.23;100.00;100370.80;105475;1255;76139;-48
2023/06/06 05:03:52;;;;;;;1.00;0.40;;;;;;;15.38;100.00;100370.85;105656;1259;69385;-46
2023/06/06 05:06:20;;;;;;;0.70;0.50;;;;;;;15.52;100.00;100368.93;106202;1254;75025;-48
2023/06/06 05:08:48;;;;;;;0.80;0.50;;;;;;;15.66;100.00;100368.67;105950;1254;62045;-45
2023/06/06 05:11:17;;;;;;;0.90;0.50;;;;;;;15.81;100.00;100366.52;105390;1255;62364;-47
2023/06/06 05:13:45;;;;;;;1.80;0.50;;;;;;;15.95;100.00;100365.46;105370;1254;76379;-46
2023/06/06 05:16:13;;;;;;;1.80;0.40;;;;;;;16.10;100.00;100369.11;105299;1254;70407;-45
2023/06/06 05:18:40;;;;;;;0.70;0.40;;;;;;;16.23;100.00;100369.86;105277;1260;74978;-48
2023/06/06 05:21:08;;;;;;;0.80;0.40;;;;;;;16.39;100.00;100373.61;105439;1257;61204;-49
2023/06/06 05:23:36;;;;;;;0.50;0.40;;;;;;;16.54;100.00;100374.80;105782;1253;62408;-47
2023/06/06 05:26:04;;;;;;;0.50;0.30;;;;;;;16.72;100.00;100378.08;105175;1254;75718;-49
2023/06/06 05:28:31;;;;;;;0.80;0.40;;;;;;;16.86;100.00;100379.34;105011;1259;70269;-47
2023/06/06 05:31:00;;;;;;;3.80;0.50;;;;;;;16.99;100.00;100381.00;104764;1254;75068;-47
2023/06/06 05:33:30;;;;;;;1.10;0.50;;;;;;;17.14;100.00;100382.96;105432;1254;62375;-49
2023/06/06 05:35:58;;;;;;;0.60;0.40;;;;;;;17.29;100.00;100383.07;105924;1260;61860;-48
2023/06/06 05:38:26;;;;;;;2.10;0.40;;;;;;;17.44;100.00;100382.96;105292;1259;75768;-48
2023/06/06 05:40:53;;;;;;;1.20;0.40;;;;;;;17.57;100.00;100386.44;105391;1260;69860;-49
2023/06/06 05:43:20;;;;;;;0.60;0.40;;;;;;;17.71;100.00;100390.21;105402;1260;75327;-48
2023/06/06 05:45:48;;;;;;;3.20;0.60;;;;;;;17.84;100.00;100387.52;105345;1254;62437;-48
2023/06/06 05:48:15;;;;;;;0.90;0.40;;;;;;;17.96;100.00;100387.81;105391;1259;62588;-47
2023/06/06 05:50:43;;;;;;;1.80;0.50;;;;;;;18.07;100.00;100388.09;105399;1254;74868;-44
2023/06/06 05:53:11;;;;;;;2.60;0.40;;;;;;;18.19;100.00;100388.58;105440;1259;69945;-47
2023/06/06 05:55:38;;;;;;;0.70;0.30;;;;;;;18.29;100.00;100388.38;105398;1255;74919;-48
2023/06/06 05:58:06;;;;;;;1.40;0.50;;;;;;;18.40;100.00;100392.14;105484;1259;61847;-48
2023/06/06 06:00:34;;;;;;;3.30;0.50;;;;;;;18.52;100.00;100394.55;105417;1253;62668;-46
2023/06/06 06:03:02;;;;;;;0.80;0.50;;;;;;;18.65;100.00;100397.33;105364;1259;76239;-46
2023/06/06 06:05:29;;;;;;;0.90;0.50;;;;;;;18.75;100.00;100400.55;108936;1253;69954;-50
2023/06/06 06:08:00;;;;;;;2.70;0.50;;;;;;;18.86;100.00;100399.08;106835;1254;73620;-49
2023/06/06 06:10:29;;;;;;;2.80;0.50;;;;;;;18.97;100.00;100398.98;105328;1254;143729;-47
2023/06/06 06:13:58;;;;;;;1.80;0.60;;;;;;;19.11;100.00;100398.71;102307;1294;600800;-47
2023/06/06 06:16:25;;;;;;;3.60;1.20;;;;;;;19.17;100.00;100401.54;104569;1267;62038;-47
2023/06/06 06:18:53;;;;;;;2.20;0.60;;;;;;;19.25;100.00;100401.10;104438;1272;61115;-49
2023/06/06 06:21:21;;;;;;;0.60;0.50;;;;;;;19.34;100.00;100400.60;104395;1272;73022;-46
2023/06/06 06:23:49;;;;;;;2.80;0.50;;;;;;;19.44;100.00;100402.80;107186;1270;69515;-50
2023/06/06 06:26:17;;;;;;;1.80;0.50;;;;;;;19.54;100.00;100405.52;104471;1273;74924;-46
2023/06/06 06:28:44;;;;;;;0.70;0.40;;;;;;;19.63;100.00;100404.23;104308;1269;224331;-48
2023/06/06 06:31:12;;;;;;;1.20;0.40;;;;;;;19.74;100.00;100407.84;104596;1269;61981;-48
2023/06/06 06:33:40;;;;;;;2.60;0.50;;;;;;;19.84;100.00;100407.05;108349;1264;74483;-49
2023/06/06 06:36:07;;;;;;;2.00;0.50;;;;;;;19.95;100.00;100405.65;108169;1270;70625;-49
2023/06/06 06:38:36;;;;;;;1.60;0.50;;;;;;;20.05;100.00;100403.43;108217;1264;74961;-50
2023/06/06 06:41:03;;;;;;;2.20;0.40;;;;;;;20.14;100.00;100404.02;104823;1264;61178;-48
2023/06/06 06:43:31;;;;;;;6.40;0.40;;;;;;;20.22;100.00;100402.95;104516;1266;60657;-49
2023/06/06 06:46:01;;;;;;;1.10;0.50;;;;;;;20.31;100.00;100407.36;104672;1261;75272;-48
2023/06/06 06:48:28;;;;;;;2.40;0.30;;;;;;;20.39;100.00;100406.94;104878;1269;69688;-46
2023/06/06 06:50:56;;;;;;;1.10;0.40;;;;;;;20.47;100.00;100407.11;104851;1266;74922;-48
2023/06/06 06:53:25;;;;;;;0.30;0.30;;;;;;;20.54;100.00;100407.27;104928;1269;62498;-50
2023/06/06 06:55:52;;;;;;;0.80;0.40;;;;;;;20.61;100.00;100405.23;105305;1266;63292;-48
2023/06/06 06:58:25;;;;;;;0.40;0.40;;;;;;;20.67;100.00;100405.52;104961;1267;73546;-48
2023/06/06 07:00:53;;;;;;;8.70;0.40;;;;;;;20.73;100.00;100401.35;104925;1269;69199;-49
2023/06/06 07:03:21;;;;;;;1.10;0.50;;;;;;;20.81;100.00;100404.66;104425;1267;75058;-51
2023/06/06 07:05:49;;;;;;;1.90;0.40;;;;;;;20.92;100.00;100404.17;104954;1266;61142;-46
2023/06/06 07:08:16;;;;;;;2.30;0.40;;;;;;;21.01;100.00;100402.02;104550;1266;62449;-47
2023/06/06 07:10:44;;;;;;;2.30;0.40;;;;;;;21.09;100.00;100402.59;104414;1263;75441;-50
2023/06/06 07:13:14;;;;;;;3.00;0.50;;;;;;;21.19;100.00;100402.93;104331;1274;69924;-50
2023/06/06 07:15:42;;;;;;;0.50;0.40;;;;;;;21.29;100.00;100406.86;104002;1267;74830;-50
2023/06/06 07:18:10;;;;;;;2.80;0.30;;;;;;;21.36;100.00;100409.02;104031;1268;63182;-48
2023/06/06 07:20:38;;;;;;;0.60;0.40;;;;;;;21.42;100.00;100402.83;105162;1269;62167;-49
2023/06/06 07:23:06;;;;;;;0.50;0.30;;;;;;;21.48;100.00;100401.02;104038;1266;74119;-48
2023/06/06 07:25:35;;;;;;;1.40;0.30;;;;;;;21.55;100.00;100398.98;105019;1264;70296;-49
2023/06/06 07:28:04;;;;;;;3.10;0.40;;;;;;;21.64;100.00;100399.70;104527;1270;75300;-50
2023/06/06 07:30:32;;;;;;;1.90;0.40;;;;;;;21.73;100.00;100401.66;104125;1268;62413;-49
2023/06/06 07:32:59;;;;;;;1.60;0.30;;;;;;;21.82;100.00;100400.13;104662;1269;62222;-46
2023/06/06 07:35:32;;;;;;;3.20;0.70;;;;;;;21.95;100.00;100398.70;106373;1264;75157;-48
2023/06/06 07:38:00;;;;;;;1.10;0.40;;;;;;;22.04;100.00;100400.16;104899;1264;70295;-49
2023/06/06 07:40:28;;;;;;;2.20;0.40;;;;;;;22.10;100.00;100395.02;104763;1269;72758;-50
2023/06/06 07:42:57;;;;;;;4.40;0.50;;;;;;;22.18;100.00;100391.48;104775;1269;59749;-49
2023/06/06 07:45:24;;;;;;;0.60;0.40;;;;;;;22.27;100.00;100393.02;104676;1264;59847;-48
2023/06/06 07:47:52;;;;;;;2.70;0.50;;;;;;;22.34;100.00;100393.14;104519;1268;71678;-47
2023/06/06 07:50:19;;;;;;;2.30;0.40;;;;;;;22.37;100.00;100398.89;104711;1269;67519;-50
2023/06/06 07:52:46;;;;;;;1.00;0.40;;;;;;;22.36;100.00;100397.19;104862;1273;72872;-50
2023/06/06 07:55:14;;;;;;;1.70;0.30;;;;;;;22.33;100.00;100395.27;104673;1263;60110;-47
2023/06/06 07:57:45;;;;;;;1.80;0.60;;;;;;;22.27;100.00;100396.36;104678;1269;60207;-46
2023/06/06 08:00:13;;;;;;;0.90;0.30;;;;;;;22.21;100.00;100396.23;105323;1269;73518;-48
2023/06/06 08:02:40;;;;;;;2.20;0.50;;;;;;;22.22;100.00;100395.80;104357;1266;67939;-48
2023/06/06 08:05:08;;;;;;;2.20;0.40;;;;;;;22.29;100.00;100394.48;105628;1269;73118;-49
2023/06/06 08:07:41;;;;;;;2.60;0.40;;;;;;;22.39;100.00;100396.58;105189;1263;59765;-47
2023/06/06 08:10:08;;;;;;;0.30;0.30;;;;;;;22.49;100.00;100393.26;104579;1268;60081;-51
2023/06/06 08:12:36;;;;;;;1.20;0.50;;;;;;;22.58;100.00;100393.52;105093;1264;74354;-51
2023/06/06 08:15:07;;;;;;;3.00;0.40;;;;;;;22.63;100.00;100394.21;105509;1264;67578;-48
2023/06/06 08:17:35;;;;;;;1.80;0.40;;;;;;;22.66;100.00;100394.69;105592;1263;72679;-50
2023/06/06 08:20:06;;;;;;;0.40;0.30;;;;;;;22.71;100.00;100394.83;104765;1269;60051;-47
2023/06/06 08:22:33;;;;;;;0.40;0.30;;;;;;;22.75;100.00;100395.20;105485;1266;60055;-49
2023/06/06 08:25:06;;;;;;;1.00;0.40;;;;;;;22.80;100.00;100397.48;105895;1264;73048;-47
2023/06/06 08:27:34;;;;;;;0.40;0.30;;;;;;;22.83;100.00;100393.58;105819;1264;66409;-48
2023/06/06 08:30:02;;;;;;;0.50;0.30;;;;;;;22.84;100.00;100391.50;105932;1269;72762;-49
2023/06/06 08:32:32;;;;;;;1.30;0.30;;;;;;;22.82;100.00;100389.08;105540;1269;60191;-48
2023/06/06 08:35:03;;;;;;;0.80;0.30;;;;;;;22.79;100.00;100384.77;105358;1269;62290;-49
2023/06/06 08:37:30;;;;;;;1.70;0.30;;;;;;;22.79;100.00;100384.81;105197;1270;73903;-49
2023/06/06 08:39:58;;;;;;;0.80;0.40;;;;;;;22.82;100.00;100386.01;104662;1270;67271;-50
2023/06/06 08:42:26;;;;;;;0.60;0.30;;;;;;;22.82;100.00;100381.05;104785;1273;71843;-49
2023/06/06 08:44:53;;;;;;;0.60;0.50;;;;;;;22.78;100.00;100376.65;105808;1267;59690;-51
2023/06/06 08:47:21;;;;;;;0.50;0.40;;;;;;;22.74;100.00;100372.95;104775;1262;59175;-48
2023/06/06 08:49:48;;;;;;;3.30;0.30;;;;;;;22.73;100.00;100368.66;104790;1262;73034;-49
2023/06/06 08:52:15;;;;;;;0.30;0.30;;;;;;;22.74;100.00;100368.20;104867;1266;67753;-47
2023/06/06 08:54:43;;;;;;;0.60;0.30;;;;;;;22.80;100.00;100367.19;104784;1263;73050;-49
2023/06/06 08:57:11;;;;;;;0.50;0.40;;;;;;;22.90;100.00;100367.52;105029;1260;59604;-50
2023/06/06 08:59:38;;;;;;;0.40;0.40;;;;;;;22.98;100.00;100367.73;105109;1264;60038;-49
2023/06/06 09:02:08;;;;;;;2.00;0.40;;;;;;;23.03;100.00;100363.39;104962;1258;73076;-49
2023/06/06 09:04:36;;;;;;;2.20;0.50;;;;;;;23.08;100.00;100362.55;105074;1257;65038;-48
2023/06/06 09:07:04;;;;;;;0.50;0.40;;;;;;;23.10;100.00;100364.10;108704;1259;71217;-50
2023/06/06 09:09:33;;;;;;;1.00;0.30;;;;;;;23.10;100.00;100361.67;108773;1258;60217;-50
2023/06/06 09:12:00;;;;;;;4.80;0.40;;;;;;;23.09;100.00;100358.44;108544;1261;59945;-50
2023/06/06 09:14:27;;;;;;;0.60;0.30;;;;;;;23.09;100.00;100357.97;108638;1260;72213;-50
2023/06/06 09:16:54;;;;;;;1.20;0.40;;;;;;;23.08;100.00;100355.30;108595;1264;65639;-50
2023/06/06 09:19:25;;;;;;;0.40;0.30;;;;;;;23.07;100.00;100353.56;108708;1260;72370;-51
2023/06/06 09:21:53;;;;;;;0.50;0.40;;;;;;;23.05;100.00;100350.45;108724;1259;60522;-50
2023/06/06 09:24:20;;;;;;;0.30;0.20;;;;;;;23.02;100.00;100349.42;108521;1260;60028;-50
2023/06/06 09:26:48;;;;;;;2.40;0.40;;;;;;;22.98;100.00;100349.02;108537;1259;71413;-51
2023/06/06 09:29:15;;;;;;;0.70;0.30;;;;;;;22.94;100.00;100348.27;108474;1259;66403;-50
2023/06/06 09:31:42;;;;;;;6.70;1.00;;;;;;;22.90;100.00;100342.63;108498;1261;72125;-50
2023/06/06 09:34:10;;;;;;;1.60;0.40;;;;;;;22.87;100.00;100338.70;107521;1260;60086;-49
2023/06/06 09:36:40;;;;;;;0.50;0.40;;;;;;;22.89;100.00;100338.88;105823;1261;60512;-51
2023/06/06 09:39:12;;;;;;;0.90;0.40;;;;;;;22.96;100.00;100336.36;104964;1266;73142;-48
2023/06/06 09:41:42;;;;;;;0.70;0.40;;;;;;;23.08;100.00;100333.34;104968;1260;65524;-47
2023/06/06 09:44:19;;;;;;;0.50;0.40;;;;;;;23.20;100.00;100327.82;105003;1260;72702;-49
2023/06/06 09:46:48;;;;;;;0.50;0.30;;;;;;;23.27;100.00;100329.33;105382;1258;59733;-50
2023/06/06 09:49:16;;;;;;;2.70;0.40;;;;;;;23.29;100.00;100328.98;105637;1257;60426;-51
2023/06/06 09:51:44;;;;;;;0.50;0.40;;;;;;;23.31;100.00;100326.76;105196;1264;71813;-50
2023/06/06 09:54:11;;;;;;;3.20;0.40;;;;;;;23.33;100.00;100320.16;105011;1258;67888;-47
2023/06/06 09:56:40;;;;;;;1.90;0.40;;;;;;;23.35;100.00;100322.17;105283;1257;72688;-51
2023/06/06 09:59:08;;;;;;;0.90;0.40;;;;;;;23.37;100.00;100320.73;106287;1262;60465;-49
2023/06/06 10:01:37;;;;;;;0.40;0.40;;;;;;;23.38;100.00;100316.37;105238;1257;59962;-50
2023/06/06 10:04:05;;;;;;;1.00;0.60;;;;;;;23.39;100.00;100317.55;105302;1260;73011;-49
2023/06/06 10:06:39;;;;;;;2.90;0.50;;;;;;;23.40;100.00;100315.81;105240;1262;67477;-54
2023/06/06 10:09:06;;;;;;;3.10;0.40;;;;;;;23.42;100.00;100314.23;106712;1259;73314;-49
2023/06/06 10:11:34;;;;;;;0.80;0.50;;;;;;;23.47;100.00;100309.91;105130;1257;59800;-50
2023/06/06 10:14:03;;;;;;;1.70;0.70;;;;;;;23.52;100.00;100311.98;105194;1262;59665;-50
2023/06/06 10:16:31;;;;;;;0.70;0.40;;;;;;;23.57;100.00;100304.99;105562;1257;74842;-50
2023/06/06 10:18:58;;;;;;;1.10;0.50;;;;;;;23.65;100.00;100301.67;105160;1259;69689;-50
2023/06/06 10:21:27;;;;;;;2.70;0.50;;;;;;;23.75;100.00;100299.42;105017;1263;72813;-47
2023/06/06 10:23:54;;;;;;;1.30;0.40;;;;;;;23.90;100.00;100300.91;106186;1257;60500;-49
2023/06/06 10:26:45;;;;;;;2.60;0.50;;;;;;;24.05;100.00;100300.48;105417;1261;60491;-51
2023/06/06 10:29:28;;;;;;;0.50;0.50;;;;;;;24.25;100.00;100296.46;105617;1257;73788;-50
2023/06/06 10:32:12;;;;;;;0.80;0.40;;;;;;;24.41;100.00;100290.52;105258;1257;66320;-48
2023/06/06 10:34:41;;;;;;;4.20;0.90;;;;;;;24.54;100.00;100290.55;105385;1257;74955;-50
2023/06/06 10:37:22;;;;;;;0.40;0.40;;;;;;;24.63;100.00;100290.19;105208;1258;60547;-48
2023/06/06 10:39:59;;;;;;;1.70;0.40;;;;;;;24.67;100.00;100290.88;105142;1257;60462;-51
2023/06/06 10:42:37;;;;;;;1.30;0.40;;;;;;;24.69;100.00;100295.98;105188;1260;75302;-48
2023/06/06 10:45:07;;;;;;;4.30;0.60;;;;;;;24.69;100.00;100293.02;105320;1257;67935;-47
2023/06/06 10:47:37;;;;;;;2.00;0.40;;;;;;;24.65;100.00;100292.91;106631;1256;71555;-48
2023/06/06 10:50:08;;;;;;;1.20;0.40;;;;;;;24.57;100.00;100293.86;105399;1256;60402;-50
2023/06/06 10:52:56;;;;;;;0.60;0.30;;;;;;;24.45;100.00;100292.25;105253;1258;60421;-51
2023/06/06 10:55:24;;;;;;;0.70;0.20;;;;;;;24.35;100.00;100286.89;105187;1259;72655;-50
2023/06/06 10:57:53;;;;;;;0.50;0.40;;;;;;;24.28;100.00;100283.14;105189;1257;68010;-51
2023/06/06 11:00:24;;;;;;;1.70;0.40;;;;;;;24.24;100.00;100278.59;105051;1258;71176;-51
2023/06/06 11:02:52;;;;;;;0.30;0.30;;;;;;;24.26;100.00;100276.89;105664;1256;60421;-50
2023/06/06 11:05:21;;;;;;;3.10;0.40;;;;;;;24.32;100.00;100277.09;105842;1257;60540;-49
2023/06/06 11:07:52;;;;;;;1.00;0.30;;;;;;;24.34;100.00;100275.35;105171;1257;73286;-50
2023/06/06 11:10:23;;;;;;;0.50;0.40;;;;;;;24.32;100.00;100272.29;105258;1259;67058;-52
2023/06/06 11:12:50;;;;;;;0.50;0.50;;;;;;;24.28;100.00;100266.31;105242;1257;72477;-47
2023/06/06 11:15:31;;;;;;;0.40;0.30;;;;;;;24.21;100.00;100266.02;105407;1258;60470;-49
2023/06/06 11:18:01;;;;;;;0.40;0.40;;;;;;;24.13;100.00;100262.21;105032;1260;62323;-50